ADDS METAR Data INFO
IDs: Format: Raw Decoded Include TAF

Data at: 2138 UTC 15 Dec 2017

K2I0 152115Z AUTO 25006KT 10SM OVC048 06/M02 A3012 RMK AO2 T00561024
K2I0 152055Z AUTO 25012KT 10SM OVC048 06/M03 A3011 RMK AO2 T00571028
K2I0 151935Z AUTO 29005G08KT 10SM CLR 06/M03 A3009 RMK AO2 T00601033
K2I0 151915Z AUTO 28007KT 10SM SCT041 SCT065 06/M04 A3009 RMK AO2 T00591036
K2I0 151655Z AUTO 29007KT 10SM CLR 03/M04 A3016 RMK AO2 T00331040
K2I0 151535Z AUTO 32007KT 10SM SCT029 01/M05 A3017 RMK AO2 T00131047
K2I0 151515Z AUTO 32010KT 10SM OVC029 01/M05 A3017 RMK AO2 T00061047
K2I0 151455Z AUTO 30009KT 10SM OVC029 01/M04 A3017 RMK AO2 T00061045
K2I0 151435Z AUTO 28007KT 10SM OVC031 01/M05 A3016 RMK AO2 T00051046
K2I0 151415Z AUTO 28005KT 10SM OVC031 00/M05 A3016 RMK AO2 T00021050
K2I0 151355Z AUTO 28005KT 10SM OVC031 00/M05 A3015 RMK AO2 T00021050
K2I0 151335Z AUTO 29005KT 10SM OVC031 00/M05 A3015 RMK AO2 T00011055
K2I0 151215Z AUTO 29007KT 10SM OVC033 00/M05 A3012 RMK AO2 T00001051
K2I0 151055Z AUTO 30007KT 10SM OVC033 00/M05 A3010 RMK AO2 T00011046
K2I0 151035Z AUTO 29009KT 10SM OVC033 00/M05 A3009 RMK AO2 T00031046
K2I0 151015Z AUTO 28004KT 10SM OVC035 00/M05 A3010 RMK AO2 T00021049
K2I0 150755Z AUTO 29006KT 10SM OVC035 00/M05 A3010 RMK AO2 T00031048
K2I0 150635Z AUTO 29004KT 10SM OVC035 00/M04 A3010 RMK AO2 T00031045
K2I0 150615Z AUTO 29003KT 10SM OVC035 01/M05 A3011 RMK AO2 T00051052
K2I0 150555Z AUTO 00000KT 10SM OVC035 01/M05 A3010 RMK AO2 T00051046 10010 20004 400510000
K2I0 150535Z AUTO 31003KT 10SM OVC035 00/M04 A3011 RMK AO2 T00041041
K2I0 150515Z AUTO 32005KT 10SM OVC035 01/M04 A3011 RMK AO2 T00051042
K2I0 150355Z AUTO 31003KT 10SM OVC035 01/M04 A3012 RMK AO2 T00061040
K2I0 150135Z AUTO 34006KT 10SM OVC035 01/M04 A3011 RMK AO2 T00081040
K2I0 150015Z AUTO 35003KT 10SM OVC035 01/M04 A3009 RMK AO2 T00091038
K2I0 142255Z AUTO 35006KT 10SM OVC033 01/M04 A3009 RMK AO2 T00141042
K2I0 142135Z AUTO 01004KT 10SM OVC033 02/M04 A3008 RMK AO2 T00181044
K2I0 142115Z AUTO 36003KT 10SM OVC033 02/M05 A3007 RMK AO2 T00171046
K2I0 141955Z AUTO 36007KT 10SM OVC033 02/M04 A3007 RMK AO2 T00211043
K2I0 141935Z AUTO 36008KT 10SM OVC033 02/M04 A3005 RMK AO2 T00231040
K2I0 141815Z AUTO 01004KT 10SM OVC031 02/M05 A3005 RMK AO2 T00211046
K2I0 141755Z AUTO 02003KT 10SM OVC031 02/M05 A3006 RMK AO2 T00201046 10023 20000
K2I0 141635Z AUTO 01008KT 10SM BKN029 02/M04 A3006 RMK AO2 T00231041
K2I0 141515Z AUTO 02007KT 10SM CLR 01/M04 A3005 RMK AO2 T00061043
K2I0 141355Z AUTO 02010KT 10SM CLR 00/M04 A3001 RMK AO2 T00011040
K2I0 141135Z AUTO 35009KT 10SM OVC035 02/M03 A2994 RMK AO2 T00211035
K2I0 141015Z AUTO 01012G15KT 10SM OVC029 03/M02 A2991 RMK AO2 T00301020